Time;durP1;ratioP1;P1;durP2;ratioP2;P2;SDS_P1;SDS_P2;PMS_P1;PMS_P2;Temp;Humidity;BMP_temperature;BMP_pressure;BME280_temperature;BME280_humidity;BME280_pressure;Samples;Min_cycle;Max_cycle;Signal;HPM_P1;HPM_P2
2021/04/13 00:01:10;;;;;;;10.10;3.93;;;1.30;99.90;;;;;;5020424;28;20036;-77
2021/04/13 00:03:37;;;;;;;5.83;3.97;;;1.30;99.90;;;;;;5031173;28;20030;-79
2021/04/13 00:06:03;;;;;;;6.17;3.80;;;1.30;99.90;;;;;;5031406;28;20073;-78
2021/04/13 00:08:29;;;;;;;6.83;4.17;;;1.30;99.90;;;;;;5033059;28;20072;-78
2021/04/13 00:11:00;;;;;;;6.00;4.10;;;1.30;99.90;;;;;;5029278;28;20105;-78
2021/04/13 00:13:28;;;;;;;6.30;3.77;;;1.30;99.90;;;;;;5030651;28;20087;-77
2021/04/13 00:16:06;;;;;;;7.37;4.17;;;1.30;99.90;;;;;;5030669;28;20045;-77
2021/04/13 00:18:33;;;;;;;4.70;3.47;;;1.30;99.90;;;;;;5025284;28;20405;-78
2021/04/13 00:21:04;;;;;;;6.40;4.00;;;1.30;99.90;;;;;;5030229;28;20396;-77
2021/04/13 00:23:30;;;;;;;5.73;3.80;;;1.30;99.90;;;;;;5030773;28;20120;-77
2021/04/13 00:26:00;;;;;;;6.43;3.97;;;1.30;99.90;;;;;;5033218;28;20049;-77
2021/04/13 00:28:27;;;;;;;;;;;1.30;99.90;;;;;;5031442;28;20099;-77
2021/04/13 00:30:58;;;;;;;8.33;4.40;;;1.30;99.90;;;;;;5029295;28;20597;-78
2021/04/13 00:33:27;;;;;;;6.03;4.10;;;1.30;99.90;;;;;;5031148;28;20032;-78
2021/04/13 00:36:08;;;;;;;7.70;4.28;;;1.30;99.90;;;;;;5037362;28;20170;-78
2021/04/13 00:38:48;;;;;;;8.30;4.30;;;1.30;99.90;;;;;;5025261;28;20048;-76
2021/04/13 00:41:21;;;;;;;8.20;4.40;;;1.30;99.90;;;;;;5033736;28;20032;-78
2021/04/13 00:44:11;;;;;;;8.63;4.97;;;1.30;99.90;;;;;;5028753;28;20037;-77
2021/04/13 00:47:03;;;;;;;8.60;4.50;;;1.30;99.90;;;;;;5023109;28;20439;-77
2021/04/13 00:49:35;;;;;;;6.57;4.40;;;1.30;99.90;;;;;;5026835;28;20480;-77
2021/04/13 00:52:06;;;;;;;7.07;4.20;;;1.30;99.90;;;;;;5025372;28;20395;-78
2021/04/13 00:54:35;;;;;;;7.43;4.63;;;1.30;99.90;;;;;;5029701;28;20112;-77
2021/04/13 00:57:34;;;;;;;6.43;4.50;;;1.30;99.90;;;;;;5029887;28;20068;-78
2021/04/13 01:00:02;;;;;;;8.25;4.78;;;1.30;99.90;;;;;;4991243;28;20065;-77
2021/04/13 01:02:30;;;;;;;8.60;4.80;;;1.30;99.90;;;;;;5033481;28;20072;-76
2021/04/13 01:05:12;;;;;;;8.47;5.30;;;1.30;99.90;;;;;;5029858;28;20029;-76
2021/04/13 01:07:43;;;;;;;7.73;4.57;;;1.30;99.90;;;;;;5028284;28;20088;-77
2021/04/13 01:10:24;;;;;;;7.57;4.93;;;1.20;99.90;;;;;;5029998;28;20485;-77
2021/04/13 01:13:11;;;;;;;9.53;5.30;;;1.20;99.90;;;;;;5015928;28;20520;-77
2021/04/13 01:15:38;;;;;;;10.50;5.60;;;1.20;99.90;;;;;;5028142;28;20029;-77
2021/04/13 01:18:06;;;;;;;8.63;6.03;;;1.10;99.90;;;;;;5028836;28;20041;-76
2021/04/13 01:20:44;;;;;;;10.60;6.13;;;1.10;99.90;;;;;;5023624;28;20518;-77
2021/04/13 01:23:16;;;;;;;11.23;6.37;;;1.10;99.90;;;;;;5033051;28;20029;-78
2021/04/13 01:25:45;;;;;;;8.10;6.17;;;1.10;99.90;;;;;;5033133;28;20053;-78
2021/04/13 01:28:15;;;;;;;9.55;6.53;;;1.10;99.90;;;;;;5029494;28;20129;-78
2021/04/13 01:30:50;;;;;;;10.77;7.07;;;1.10;99.90;;;;;;5029786;28;20063;-78
2021/04/13 01:33:42;;;;;;;9.57;6.60;;;1.10;99.90;;;;;;5025781;28;20376;-77
2021/04/13 01:36:26;;;;;;;10.83;7.37;;;1.10;99.90;;;;;;5023498;28;20049;-78
2021/04/13 01:39:13;;;;;;;12.10;7.03;;;1.10;99.90;;;;;;5029080;28;20554;-76
2021/04/13 01:41:57;;;;;;;12.43;7.80;;;1.10;99.90;;;;;;5031932;28;20033;-76
2021/04/13 01:44:25;;;;;;;14.43;7.93;;;1.10;99.90;;;;;;5031980;28;20034;-77
2021/04/13 01:46:51;;;;;;;11.60;7.23;;;1.00;99.90;;;;;;5028697;28;20036;-78
2021/04/13 01:49:17;;;;;;;12.30;7.90;;;1.00;99.90;;;;;;5033643;28;20021;-78
2021/04/13 01:51:43;;;;;;;12.97;8.87;;;1.00;99.90;;;;;;5028061;28;20385;-77
2021/04/13 01:54:14;;;;;;;13.17;8.80;;;1.10;99.90;;;;;;5029642;28;20040;-79
2021/04/13 01:57:04;;;;;;;13.97;8.23;;;1.10;99.90;;;;;;5008696;28;20499;-79
2021/04/13 01:59:36;;;;;;;;;;;1.00;99.90;;;;;;5028362;28;20091;-78
2021/04/13 02:02:08;;;;;;;14.10;8.30;;;1.10;99.90;;;;;;5027513;28;20060;-78
2021/04/13 02:04:48;;;;;;;15.63;7.70;;;1.00;99.90;;;;;;5025194;28;20038;-77
2021/04/13 02:07:45;;;;;;;14.17;8.47;;;1.00;99.90;;;;;;5022736;28;20081;-78
2021/04/13 02:10:45;;;;;;;15.13;9.47;;;1.00;99.90;;;;;;4988162;28;20022;-77
2021/04/13 02:13:23;;;;;;;12.93;8.82;;;1.00;99.90;;;;;;5020162;28;20061;-77
2021/04/13 02:16:12;;;;;;;15.33;9.80;;;1.00;99.90;;;;;;5031002;28;20045;-78
2021/04/13 02:18:46;;;;;;;16.77;10.07;;;0.90;99.90;;;;;;5030526;28;20034;-78
2021/04/13 02:21:18;;;;;;;16.47;9.20;;;0.90;99.90;;;;;;5026026;28;20283;-77
2021/04/13 02:23:52;;;;;;;16.43;8.90;;;0.90;99.90;;;;;;5031093;28;20083;-77
2021/04/13 02:26:20;;;;;;;14.63;9.07;;;0.90;99.90;;;;;;5032245;28;20041;-77
2021/04/13 02:28:48;;;;;;;15.23;9.37;;;0.80;99.90;;;;;;5027812;28;20037;-79
2021/04/13 02:31:36;;;;;;;15.33;8.97;;;0.80;99.90;;;;;;5022138;28;20029;-78
2021/04/13 02:34:14;;;;;;;14.90;9.07;;;0.90;99.90;;;;;;5028017;28;20033;-77
2021/04/13 02:36:43;;;;;;;13.90;8.70;;;0.90;99.90;;;;;;5028825;28;20074;-78
2021/04/13 02:39:13;;;;;;;;;;;0.90;99.90;;;;;;5027919;28;20044;-77
2021/04/13 02:41:51;;;;;;;12.15;8.25;;;0.80;99.90;;;;;;5020028;28;19916;-78
2021/04/13 02:44:20;;;;;;;14.50;8.33;;;0.90;99.90;;;;;;5023097;28;20524;-79
2021/04/13 02:46:47;;;;;;;14.43;9.77;;;0.90;99.90;;;;;;5028082;28;20022;-77
2021/04/13 02:49:16;;;;;;;15.80;9.63;;;0.80;99.90;;;;;;5024742;28;20040;-78
2021/04/13 02:51:48;;;;;;;13.80;8.52;;;0.90;99.90;;;;;;5014107;28;20067;-78
2021/04/13 02:54:20;;;;;;;16.83;9.70;;;0.90;99.90;;;;;;5034593;28;20119;-77
2021/04/13 02:56:50;;;;;;;16.57;9.30;;;0.90;99.90;;;;;;5029824;28;20033;-78
2021/04/13 02:59:26;;;;;;;15.07;9.30;;;0.90;99.90;;;;;;5028195;28;20044;-77
2021/04/13 03:02:06;;;;;;;17.30;9.87;;;0.90;99.90;;;;;;5024964;28;20025;-78
2021/04/13 03:04:44;;;;;;;16.70;9.23;;;0.90;99.90;;;;;;5025385;28;20119;-78
2021/04/13 03:07:16;;;;;;;14.63;9.53;;;0.90;99.90;;;;;;5028431;28;20107;-78
2021/04/13 03:09:42;;;;;;;15.33;9.77;;;0.90;99.90;;;;;;5025815;28;20048;-77
2021/04/13 03:12:10;;;;;;;15.23;9.53;;;0.90;99.90;;;;;;5023786;28;20026;-77
2021/04/13 03:14:45;;;;;;;15.33;9.97;;;0.90;99.90;;;;;;5031199;28;20040;-77
2021/04/13 03:17:17;;;;;;;16.93;9.97;;;0.90;99.90;;;;;;5032786;28;20037;-78
2021/04/13 03:19:46;;;;;;;17.80;9.90;;;0.90;99.90;;;;;;5033701;28;20061;-78
2021/04/13 03:22:13;;;;;;;14.97;9.53;;;0.90;99.90;;;;;;5036124;28;20037;-78
2021/04/13 03:24:42;;;;;;;16.30;9.83;;;0.90;99.90;;;;;;5031375;28;20096;-77
2021/04/13 03:27:12;;;;;;;18.77;9.07;;;0.90;99.90;;;;;;5029369;28;20030;-78
2021/04/13 03:29:55;;;;;;;15.13;9.13;;;0.90;99.90;;;;;;5027567;28;20115;-80
2021/04/13 03:32:26;;;;;;;14.77;9.63;;;0.80;99.90;;;;;;5023808;28;20053;-78
2021/04/13 03:34:52;;;;;;;14.70;9.67;;;0.90;99.90;;;;;;5030770;28;20130;-77
2021/04/13 03:37:18;;;;;;;16.63;9.70;;;0.90;99.90;;;;;;5027804;28;20428;-78
2021/04/13 03:39:45;;;;;;;16.90;10.63;;;0.90;99.90;;;;;;5013184;28;20044;-80
2021/04/13 03:42:19;;;;;;;17.20;10.10;;;0.80;99.90;;;;;;5034947;28;20103;-78
2021/04/13 03:44:45;;;;;;;18.37;10.43;;;0.80;99.90;;;;;;5013443;28;20279;-78
2021/04/13 03:47:13;;;;;;;17.00;10.83;;;0.90;99.90;;;;;;5029290;28;20029;-78
2021/04/13 03:49:41;;;;;;;16.70;11.03;;;0.80;99.90;;;;;;5031353;28;20025;-79
2021/04/13 03:52:17;;;;;;;18.00;10.70;;;0.80;99.90;;;;;;5030216;28;20444;-77
2021/04/13 03:54:43;;;;;;;17.63;11.07;;;0.90;99.90;;;;;;5030535;28;20060;-79
2021/04/13 03:57:09;;;;;;;20.23;11.50;;;0.80;99.90;;;;;;5030838;28;20048;-77
2021/04/13 03:59:40;;;;;;;18.20;10.93;;;0.90;99.90;;;;;;5030808;28;20017;-78
2021/04/13 04:02:07;;;;;;;19.23;10.77;;;0.90;99.90;;;;;;5028064;28;20028;-77
2021/04/13 04:04:42;;;;;;;19.20;10.70;;;0.80;99.90;;;;;;5030280;28;20030;-79
2021/04/13 04:07:21;;;;;;;19.07;11.17;;;0.80;99.90;;;;;;5030535;28;20132;-77
2021/04/13 04:09:47;;;;;;;20.05;11.88;;;0.90;99.90;;;;;;5033416;28;20034;-78
2021/04/13 04:12:23;;;;;;;18.73;10.63;;;0.90;99.90;;;;;;5027454;28;20034;-79
2021/04/13 04:15:02;;;;;;;21.00;11.93;;;0.80;99.90;;;;;;5029231;28;20045;-78
2021/04/13 04:17:30;;;;;;;20.67;11.40;;;0.90;99.90;;;;;;5031312;28;20496;-77
2021/04/13 04:20:03;;;;;;;19.33;11.27;;;0.80;99.90;;;;;;5031820;28;20036;-78
2021/04/13 04:22:29;;;;;;;20.07;11.33;;;0.80;99.90;;;;;;5030311;28;20033;-78
2021/04/13 04:25:28;;;;;;;20.27;12.77;;;0.90;99.90;;;;;;5034090;28;20052;-78
2021/04/13 04:27:55;;;;;;;19.17;11.38;;;0.90;99.90;;;;;;5029615;28;20025;-77
2021/04/13 04:30:29;;;;;;;19.23;11.20;;;0.80;99.90;;;;;;5026646;28;20030;-77
2021/04/13 04:32:58;;;;;;;20.17;12.80;;;0.80;99.90;;;;;;5026634;28;20033;-77
2021/04/13 04:35:43;;;;;;;20.97;12.80;;;0.80;99.90;;;;;;5012275;28;20499;-77
2021/04/13 04:38:14;;;;;;;20.87;11.77;;;0.90;99.90;;;;;;5030184;28;20080;-77
2021/04/13 04:40:52;;;;;;;21.10;12.67;;;0.90;99.90;;;;;;5028880;28;20048;-78
2021/04/13 04:43:21;;;;;;;22.70;13.93;;;0.90;99.90;;;;;;5024458;28;20489;-77
2021/04/13 04:45:48;;;;;;;21.57;11.93;;;0.90;99.90;;;;;;5033772;28;20137;-78
2021/04/13 04:48:24;;;;;;;21.43;12.70;;;0.90;99.90;;;;;;5028568;28;20392;-79
2021/04/13 04:50:52;;;;;;;21.07;13.30;;;0.90;99.90;;;;;;5033258;28;20484;-77
2021/04/13 04:53:19;;;;;;;20.17;12.43;;;0.80;99.90;;;;;;5050139;28;20021;-81
2021/04/13 04:55:50;;;;;;;25.33;14.40;;;0.90;99.90;;;;;;5033883;28;20094;-78
2021/04/13 04:58:16;;;;;;;27.30;14.93;;;0.90;99.90;;;;;;5030163;28;20021;-79
2021/04/13 05:00:41;;;;;;;23.20;13.63;;;0.90;99.90;;;;;;5028125;28;20026;-79
2021/04/13 05:03:07;;;;;;;21.50;13.60;;;1.00;99.90;;;;;;5034079;28;20111;-79
2021/04/13 05:05:32;;;;;;;22.47;13.30;;;1.00;99.90;;;;;;5029030;28;20396;-77
2021/04/13 05:07:58;;;;;;;24.07;14.50;;;1.00;99.90;;;;;;5026486;28;20056;-79
2021/04/13 05:10:23;;;;;;;25.10;13.90;;;1.00;99.90;;;;;;5032373;28;20083;-77
2021/04/13 05:12:49;;;;;;;26.10;13.70;;;1.00;99.90;;;;;;5029459;28;20034;-77
2021/04/13 05:15:15;;;;;;;22.20;13.70;;;1.00;99.90;;;;;;5027813;28;20556;-83
2021/04/13 05:17:40;;;;;;;22.47;13.90;;;1.00;99.90;;;;;;5030334;28;20040;-80
2021/04/13 05:20:07;;;;;;;22.30;13.73;;;1.00;99.90;;;;;;5030513;28;20021;-80
2021/04/13 05:22:32;;;;;;;22.00;13.17;;;1.10;99.90;;;;;;5030370;28;20159;-80
2021/04/13 05:24:58;;;;;;;26.97;14.37;;;1.10;99.90;;;;;;5015163;28;20544;-85
2021/04/13 05:27:23;;;;;;;23.43;13.87;;;1.10;99.90;;;;;;5025746;28;20040;-81
2021/04/13 05:29:49;;;;;;;27.30;15.33;;;1.10;99.90;;;;;;5022351;28;20022;-82
2021/04/13 05:32:15;;;;;;;23.73;14.67;;;1.20;99.90;;;;;;5009911;28;20025;-82
2021/04/13 05:34:40;;;;;;;27.63;15.43;;;1.20;99.90;;;;;;5011898;28;20120;-85
2021/04/13 05:37:06;;;;;;;25.83;15.43;;;1.20;99.90;;;;;;5019743;28;20421;-84
2021/04/13 05:39:33;;;;;;;25.90;15.03;;;1.20;99.90;;;;;;5014280;28;20116;-82
2021/04/13 05:42:00;;;;;;;26.47;15.27;;;1.20;99.90;;;;;;5008763;28;20037;-83
2021/04/13 05:44:25;;;;;;;24.73;15.13;;;1.20;99.90;;;;;;5013959;28;20064;-81
2021/04/13 05:46:52;;;;;;;25.70;16.03;;;1.20;99.90;;;;;;5010530;28;20061;-81
2021/04/13 05:49:18;;;;;;;25.63;15.47;;;1.20;99.90;;;;;;5009326;28;20041;-82
2021/04/13 05:51:44;;;;;;;28.60;16.27;;;1.30;99.90;;;;;;5010688;28;20424;-82
2021/04/13 05:54:10;;;;;;;29.53;17.33;;;1.30;99.90;;;;;;5011822;28;20029;-84
2021/04/13 05:56:39;;;;;;;31.83;18.50;;;1.30;99.90;;;;;;5011306;28;20054;-84
2021/04/13 05:59:11;;;;;;;27.57;15.87;;;1.40;99.90;;;;;;5007039;28;20117;-84
2021/04/13 06:01:37;;;;;;;27.33;17.13;;;1.40;99.90;;;;;;5006025;28;20029;-85
2021/04/13 06:04:03;;;;;;;28.57;17.03;;;1.50;99.90;;;;;;5007676;28;20030;-86
2021/04/13 06:06:29;;;;;;;28.20;16.87;;;1.50;99.90;;;;;;5015093;28;20100;-85
2021/04/13 06:08:55;;;;;;;29.03;17.40;;;1.50;99.90;;;;;;5013221;28;20034;-81
2021/04/13 06:11:27;;;;;;;29.87;17.33;;;1.50;99.90;;;;;;5008027;28;20060;-86
2021/04/13 06:13:57;;;;;;;29.20;17.17;;;1.50;99.90;;;;;;5021410;28;20042;-85
2021/04/13 06:16:27;;;;;;;30.10;17.73;;;1.50;99.90;;;;;;5016275;28;20038;-82
2021/04/13 06:18:52;;;;;;;30.50;17.92;;;1.60;99.90;;;;;;5030483;28;20006;-86
2021/04/13 06:21:18;;;;;;;30.97;17.40;;;1.60;99.90;;;;;;5026718;28;20092;-85
2021/04/13 06:23:43;;;;;;;29.00;17.20;;;1.60;99.90;;;;;;5008265;28;20473;-86
2021/04/13 06:26:10;;;;;;;34.10;18.03;;;1.70;99.90;;;;;;5028912;28;20060;-85
2021/04/13 06:28:36;;;;;;;33.47;19.20;;;1.70;99.90;;;;;;5031765;28;20037;-82
2021/04/13 06:31:02;;;;;;;33.00;18.23;;;1.70;99.90;;;;;;5029687;28;20534;-82
2021/04/13 06:33:28;;;;;;;32.83;18.87;;;1.80;99.90;;;;;;5041324;28;20026;-81
2021/04/13 06:35:56;;;;;;;30.47;18.57;;;1.80;99.90;;;;;;5034086;28;20049;-83
2021/04/13 06:38:25;;;;;;;31.87;18.33;;;1.90;99.90;;;;;;5028456;28;20029;-85
2021/04/13 06:41:19;;;;;;;29.42;18.17;;;1.90;99.90;;;;;;5028332;28;20105;-85
2021/04/13 06:44:04;;;;;;;28.47;18.30;;;2.00;99.90;;;;;;5027993;28;20036;-85
2021/04/13 06:47:06;;;;;;;31.93;18.27;;;2.00;99.90;;;;;;5025601;28;20041;-89
2021/04/13 06:49:50;;;;;;;26.70;17.07;;;2.10;99.90;;;;;;5028826;28;20058;-87
2021/04/13 06:52:40;;;;;;;32.17;17.97;;;2.00;99.90;;;;;;5038469;28;20025;-87
2021/04/13 06:55:35;;;;;;;32.10;18.98;;;2.10;99.90;;;;;;5035320;28;20022;-86
2021/04/13 06:58:18;;;;;;;31.57;19.07;;;2.10;99.90;;;;;;5044114;28;20109;-86
2021/04/13 07:00:57;;;;;;;33.63;19.27;;;2.10;99.90;;;;;;5051200;28;20025;-88
2021/04/13 07:03:42;;;;;;;34.55;19.35;;;2.10;99.90;;;;;;5041577;28;20085;-86
2021/04/13 07:06:29;;;;;;;36.23;20.80;;;2.10;99.90;;;;;;5042224;28;20037;-88
2021/04/13 07:09:04;;;;;;;33.07;19.40;;;2.10;99.90;;;;;;5035945;28;20045;-89
2021/04/13 07:11:40;;;;;;;35.97;20.10;;;2.10;99.90;;;;;;5029143;28;20625;-86
2021/04/13 07:14:17;;;;;;;35.07;20.47;;;2.10;99.90;;;;;;5042544;28;20057;-84
2021/04/13 07:16:51;;;;;;;32.73;18.97;;;2.10;99.90;;;;;;5043333;28;20096;-82
2021/04/13 07:19:30;;;;;;;36.63;21.37;;;2.20;99.90;;;;;;5032759;28;20029;-82
2021/04/13 07:22:04;;;;;;;;;;;2.30;99.90;;;;;;5035804;28;20039;-84
2021/04/13 07:24:45;;;;;;;34.13;19.77;;;2.20;99.90;;;;;;5039056;28;19917;-80
2021/04/13 07:27:15;;;;;;;33.27;19.97;;;2.30;99.90;;;;;;5018626;28;20556;-82
2021/04/13 07:29:53;;;;;;;34.77;20.73;;;2.40;99.90;;;;;;5037396;28;20026;-83
2021/04/13 07:32:21;;;;;;;34.67;20.83;;;2.60;99.90;;;;;;5016706;28;20044;-82
2021/04/13 07:34:52;;;;;;;32.83;19.53;;;2.80;99.90;;;;;;5035441;28;20029;-85
2021/04/13 07:37:36;;;;;;;32.78;19.98;;;2.80;99.90;;;;;;5046336;28;20056;-84
2021/04/13 07:40:11;;;;;;;32.50;20.47;;;2.70;99.90;;;;;;5053673;28;20030;-83
2021/04/13 07:42:41;;;;;;;38.95;20.75;;;2.80;99.90;;;;;;5034833;28;20458;-84
2021/04/13 07:45:18;;;;;;;;;;;3.00;99.90;;;;;;5034737;28;20033;-84
2021/04/13 07:48:15;;;;;;;36.20;21.45;;;3.00;99.90;;;;;;5033729;28;19909;-82
2021/04/13 07:51:02;;;;;;;35.38;21.63;;;3.10;99.90;;;;;;5034738;28;20045;-83
2021/04/13 07:53:46;;;;;;;31.45;20.50;;;3.50;99.90;;;;;;5034546;28;20385;-84
2021/04/13 07:56:36;;;;;;;33.85;20.60;;;3.50;99.90;;;;;;5035761;28;20046;-83
2021/04/13 07:59:04;;;;;;;;;;;3.50;99.90;;;;;;5036186;28;20384;-82
2021/04/13 08:01:30;;;;;;;32.22;19.50;;;3.40;99.90;;;;;;5037430;28;19932;-84
2021/04/13 08:03:56;;;;;;;29.13;19.10;;;3.50;99.90;;;;;;5038018;28;20026;-84
2021/04/13 08:06:27;;;;;;;29.33;18.60;;;3.40;99.90;;;;;;5023453;28;20029;-83
2021/04/13 08:09:13;;;;;;;26.85;17.88;;;3.20;99.90;;;;;;5018155;28;20539;-84
2021/04/13 08:12:05;;;;;;;27.80;17.75;;;3.10;99.90;;;;;;5030804;28;20033;-84
2021/04/13 08:14:34;;;;;;;25.55;17.77;;;3.10;99.90;;;;;;5034546;28;20060;-84
2021/04/13 08:17:14;;;;;;;24.80;16.70;;;3.10;99.90;;;;;;5034431;28;20540;-84
2021/04/13 08:19:41;;;;;;;26.00;17.27;;;3.00;99.90;;;;;;5034214;28;20025;-83
2021/04/13 08:22:10;;;;;;;28.08;17.10;;;3.00;99.90;;;;;;5033801;28;20728;-84
2021/04/13 08:24:50;;;;;;;25.05;16.65;;;3.00;99.90;;;;;;5033528;28;20030;-83
2021/04/13 08:27:19;;;;;;;26.97;16.67;;;3.10;99.90;;;;;;5028188;28;20092;-83
2021/04/13 08:29:47;;;;;;;25.52;16.73;;;3.10;99.90;;;;;;5033578;28;20372;-80
2021/04/13 08:35:40;;;;;;;24.65;16.98;;;3.30;99.90;;;;;;5032602;28;20431;-81
2021/04/13 08:38:26;;;;;;;22.58;15.23;;;3.40;99.90;;;;;;5024874;28;20033;-83
2021/04/13 08:41:19;;;;;;;20.17;13.70;;;3.60;99.90;;;;;;5033663;28;20029;-83
2021/04/13 08:44:08;;;;;;;21.33;14.95;;;3.70;99.90;;;;;;5046142;28;20030;-83
2021/04/13 08:46:55;;;;;;;21.17;13.63;;;3.70;99.90;;;;;;5038699;28;20400;-83
2021/04/13 08:49:44;;;;;;;19.55;13.85;;;3.50;99.90;;;;;;5031328;28;20367;-81
2021/04/13 08:52:15;;;;;;;20.40;15.10;;;3.30;99.90;;;;;;5025228;28;20506;-82
2021/04/13 08:54:44;;;;;;;20.95;15.07;;;3.40;99.90;;;;;;5033686;28;20035;-82
2021/04/13 08:57:21;;;;;;;21.17;14.18;;;3.60;99.90;;;;;;5033049;28;20048;-82
2021/04/13 08:59:52;;;;;;;20.92;14.70;;;3.60;99.90;;;;;;5033303;28;20634;-82
2021/04/13 09:02:37;;;;;;;22.83;15.93;;;3.80;99.90;;;;;;5014561;28;20112;-86
2021/04/13 09:05:12;;;;;;;17.95;11.95;;;4.10;99.90;;;;;;5031614;28;20552;-85
2021/04/13 09:07:46;;;;;;;17.35;11.98;;;4.10;99.90;;;;;;5033311;28;20116;-82
2021/04/13 09:10:36;;;;;;;22.70;14.98;;;3.90;99.90;;;;;;5030332;28;20029;-83
2021/04/13 09:13:20;;;;;;;18.48;12.10;;;4.30;99.90;;;;;;5031338;28;20021;-84
2021/04/13 09:16:10;;;;;;;20.45;13.65;;;4.20;99.90;;;;;;5014416;28;20503;-83
2021/04/13 09:18:45;;;;;;;17.98;11.73;;;4.50;99.90;;;;;;5033814;28;20025;-87
2021/04/13 09:21:47;;;;;;;17.15;12.85;;;4.70;99.90;;;;;;5034612;28;20052;-85
2021/04/13 09:24:27;;;;;;;17.40;12.10;;;4.70;99.90;;;;;;5031745;28;20434;-84
2021/04/13 09:27:03;;;;;;;17.73;12.35;;;4.70;99.90;;;;;;5014889;28;20051;-87
2021/04/13 09:29:54;;;;;;;16.85;12.73;;;4.90;99.90;;;;;;5021162;28;20045;-84
2021/04/13 09:32:23;;;;;;;16.10;12.00;;;5.20;99.90;;;;;;5003360;28;20077;-80
2021/04/13 09:35:13;;;;;;;14.73;11.07;;;5.10;99.90;;;;;;5011994;28;20027;-82
2021/04/13 09:37:45;;;;;;;14.88;11.40;;;5.20;99.90;;;;;;4992648;28;20033;-84
2021/04/13 09:40:30;;;;;;;14.32;10.85;;;5.50;99.90;;;;;;5010926;28;20021;-81
2021/04/13 09:43:15;;;;;;;14.18;11.32;;;5.50;99.90;;;;;;4989017;28;20034;-83
2021/04/13 09:46:10;;;;;;;12.82;10.43;;;5.50;99.90;;;;;;4990056;28;20117;-80
2021/04/13 09:48:54;;;;;;;12.55;10.40;;;5.20;99.90;;;;;;4930887;29;20035;-82
2021/04/13 09:51:22;;;;;;;13.63;10.35;;;5.40;99.90;;;;;;4915782;29;20835;-79
2021/04/13 09:54:28;;;;;;;12.43;10.18;;;5.40;99.90;;;;;;4931427;29;20048;-80
2021/04/13 09:57:21;;;;;;;11.60;9.70;;;5.60;99.90;;;;;;4926608;29;20043;-82
2021/04/13 10:00:30;;;;;;;15.23;9.65;;;5.30;99.90;;;;;;4931915;29;20126;-80
2021/04/13 10:03:14;;;;;;;11.60;9.30;;;5.40;99.90;;;;;;4911629;29;20167;-81
2021/04/13 10:05:46;;;;;;;11.00;8.77;;;5.60;99.90;;;;;;4943835;29;20471;-82
2021/04/13 10:08:14;;;;;;;11.23;8.38;;;5.20;99.90;;;;;;4930171;29;20032;-78
2021/04/13 10:10:56;;;;;;;9.65;6.90;;;5.20;99.90;;;;;;4914106;29;20047;-79
2021/04/13 10:13:48;;;;;;;11.95;6.97;;;5.30;99.90;;;;;;4930158;29;20479;-78
2021/04/13 10:16:34;;;;;;;11.82;8.27;;;5.10;99.90;;;;;;4932407;29;20066;-80
2021/04/13 10:19:29;;;;;;;10.98;8.55;;;5.40;99.90;;;;;;4901747;29;20040;-80
2021/04/13 10:22:38;;;;;;;11.75;8.15;;;5.30;99.90;;;;;;4928552;29;20034;-80
2021/04/13 10:25:27;;;;;;;11.77;7.47;;;5.40;99.90;;;;;;4952366;28;20042;-78
2021/04/13 10:28:35;;;;;;;12.07;8.35;;;5.30;99.90;;;;;;5000341;28;20025;-79
2021/04/13 10:31:36;;;;;;;10.35;8.15;;;5.50;99.90;;;;;;4981414;28;20120;-78
2021/04/13 10:34:02;;;;;;;10.02;8.30;;;5.70;99.90;;;;;;5009243;28;20037;-79
2021/04/13 10:36:58;;;;;;;13.10;8.88;;;5.60;99.90;;;;;;5006720;28;20481;-80
2021/04/13 10:39:54;;;;;;;10.43;7.72;;;5.60;99.90;;;;;;5000436;28;20796;-82
2021/04/13 10:42:41;;;;;;;9.85;7.40;;;5.40;99.90;;;;;;5003601;28;20026;-83
2021/04/13 10:45:40;;;;;;;10.85;7.43;;;5.20;99.90;;;;;;5007726;28;20427;-83
2021/04/13 10:48:44;;;;;;;9.82;7.32;;;5.20;99.90;;;;;;4994334;28;20030;-82
2021/04/13 10:51:39;;;;;;;9.52;7.50;;;5.20;99.90;;;;;;5016518;28;20022;-83
2021/04/13 10:54:08;;;;;;;9.88;7.47;;;5.20;99.90;;;;;;5005110;28;20061;-81
2021/04/13 10:56:52;;;;;;;8.48;6.68;;;5.30;99.90;;;;;;5003742;28;20125;-82
2021/04/13 10:59:52;;;;;;;12.45;7.18;;;5.20;99.90;;;;;;4994485;28;20042;-80
2021/04/13 11:02:36;;;;;;;9.65;6.20;;;5.20;99.90;;;;;;5001167;28;20523;-82
2021/04/13 11:05:26;;;;;;;7.55;5.47;;;4.90;99.90;;;;;;4989880;28;20033;-82
2021/04/13 11:08:21;;;;;;;8.38;5.65;;;4.70;99.90;;;;;;4994321;28;20041;-80
2021/04/13 11:10:55;;;;;;;10.07;6.65;;;4.60;99.90;;;;;;5016303;28;20026;-84
2021/04/13 11:13:42;;;;;;;10.70;7.43;;;4.20;99.90;;;;;;4986568;28;20074;-83
2021/04/13 11:16:43;;;;;;;8.98;6.55;;;4.30;99.90;;;;;;4979036;28;20109;-85
2021/04/13 11:19:30;;;;;;;8.25;6.10;;;4.60;99.90;;;;;;4995975;28;20224;-85
2021/04/13 11:22:23;;;;;;;8.98;6.45;;;5.00;99.90;;;;;;5005503;28;20065;-85
2021/04/13 11:25:11;;;;;;;9.73;6.50;;;5.00;99.90;;;;;;5007965;28;20145;-86
2021/04/13 11:27:54;;;;;;;8.30;6.13;;;5.10;99.90;;;;;;5032465;28;20033;-86
2021/04/13 11:30:50;;;;;;;8.25;5.68;;;5.00;99.90;;;;;;5033132;28;20396;-87
2021/04/13 11:33:45;;;;;;;11.18;6.43;;;4.80;99.90;;;;;;5033167;28;20428;-86
2021/04/13 11:36:26;;;;;;;8.65;6.63;;;5.20;99.90;;;;;;5039815;28;20052;-85
2021/04/13 11:39:22;;;;;;;8.68;7.00;;;5.50;99.90;;;;;;5046209;28;20037;-86
2021/04/13 11:42:07;;;;;;;10.55;6.50;;;5.80;99.90;;;;;;5013172;28;20113;-87
2021/04/13 11:44:38;;;;;;;8.93;6.20;;;5.70;99.90;;;;;;5003445;28;20513;-87
2021/04/13 11:47:13;;;;;;;8.57;6.10;;;5.80;99.90;;;;;;5015059;28;20025;-86
2021/04/13 11:50:00;;;;;;;8.82;6.15;;;5.80;99.90;;;;;;5033403;28;20033;-87
2021/04/13 11:52:53;;;;;;;9.45;6.68;;;5.90;99.90;;;;;;5034045;28;20528;-87
2021/04/13 11:55:27;;;;;;;7.63;5.43;;;6.10;99.90;;;;;;5037314;28;20061;-86
2021/04/13 11:58:16;;;;;;;5.72;4.30;;;6.30;99.90;;;;;;5050680;28;20022;-86
2021/04/13 12:00:43;;;;;;;6.35;4.53;;;6.10;99.90;;;;;;5052995;28;20032;-85
2021/04/13 12:03:18;;;;;;;5.20;4.15;;;6.20;99.90;;;;;;5030752;28;20056;-85
2021/04/13 12:05:50;;;;;;;4.90;3.83;;;6.20;99.90;;;;;;5036062;28;20041;-83
2021/04/13 12:08:31;;;;;;;6.57;4.45;;;6.20;99.90;;;;;;5029973;28;20374;-86
2021/04/13 12:10:58;;;;;;;5.68;3.53;;;6.00;99.90;;;;;;5036163;28;20028;-84
2021/04/13 12:13:44;;;;;;;6.25;4.55;;;5.60;99.90;;;;;;5014542;28;20017;-85
2021/04/13 12:16:14;;;;;;;5.20;4.47;;;5.60;99.90;;;;;;5019035;28;20033;-86
2021/04/13 12:18:39;;;;;;;6.03;3.92;;;5.60;99.90;;;;;;5018284;28;20021;-84
2021/04/13 12:21:23;;;;;;;3.75;3.05;;;5.60;99.90;;;;;;5035434;28;20093;-87
2021/04/13 12:23:50;;;;;;;4.25;3.40;;;5.30;99.90;;;;;;5036942;28;20539;-85
2021/04/13 12:26:37;;;;;;;4.90;3.83;;;5.30;99.90;;;;;;5036409;28;20075;-83
2021/04/13 12:29:31;;;;;;;4.15;3.22;;;5.20;99.90;;;;;;5016380;28;20033;-84
2021/04/13 12:32:12;;;;;;;6.80;3.78;;;5.10;99.90;;;;;;5020000;28;20033;-85
2021/04/13 12:34:53;;;;;;;4.53;3.25;;;4.90;99.90;;;;;;5050625;28;20026;-85
2021/04/13 12:37:49;;;;;;;7.22;4.65;;;4.50;99.90;;;;;;5041362;28;20041;-86
2021/04/13 12:40:15;;;;;;;7.88;5.18;;;4.50;99.90;;;;;;4937024;29;20503;-84
2021/04/13 12:42:44;;;;;;;7.93;5.20;;;4.60;99.90;;;;;;4933290;29;20099;-85
2021/04/13 12:45:19;;;;;;;8.80;5.65;;;4.60;99.90;;;;;;4935008;29;20032;-84
2021/04/13 12:47:53;;;;;;;7.75;5.68;;;4.60;99.90;;;;;;4935043;29;20612;-84
2021/04/13 12:50:27;;;;;;;6.95;5.30;;;4.60;99.90;;;;;;4935067;29;20122;-86
2021/04/13 12:52:52;;;;;;;7.85;4.95;;;4.90;99.90;;;;;;4936051;29;20036;-86
2021/04/13 12:55:19;;;;;;;6.88;5.40;;;4.90;99.90;;;;;;4904238;29;20088;-84
2021/04/13 12:57:57;;;;;;;7.60;5.68;;;4.80;99.90;;;;;;4937091;29;20098;-87
2021/04/13 13:00:33;;;;;;;8.00;5.18;;;5.10;99.90;;;;;;4940105;29;20039;-89
2021/04/13 13:03:19;;;;;;;6.82;4.90;;;5.40;99.90;;;;;;4947005;29;20024;-88
2021/04/13 13:05:46;;;;;;;6.97;5.18;;;4.90;99.90;;;;;;4956120;29;20028;-87
2021/04/13 13:08:24;;;;;;;6.80;4.65;;;5.10;99.90;;;;;;4932052;29;20104;-89
2021/04/13 13:10:57;;;;;;;6.68;4.32;;;5.50;99.90;;;;;;4934020;29;20039;-87
2021/04/13 13:13:29;;;;;;;7.60;4.57;;;5.70;99.90;;;;;;4939850;29;20038;-87
2021/04/13 13:15:56;;;;;;;6.40;4.85;;;5.80;99.90;;;;;;4957740;28;20114;-84
2021/04/13 13:18:29;;;;;;;7.18;4.93;;;6.10;99.90;;;;;;5036423;28;20024;-85
2021/04/13 13:20:56;;;;;;;6.82;5.25;;;6.10;99.90;;;;;;5036035;28;20035;-86
2021/04/13 13:23:30;;;;;;;7.47;5.40;;;6.10;99.90;;;;;;5036195;28;20381;-82
2021/04/13 13:26:08;;;;;;;7.68;5.50;;;6.20;99.90;;;;;;5016159;28;20049;-85
2021/04/13 13:28:46;;;;;;;7.95;5.72;;;6.40;99.90;;;;;;5031535;28;20025;-85
2021/04/13 13:31:19;;;;;;;7.68;5.57;;;6.40;99.90;;;;;;5036640;28;20116;-85
2021/04/13 13:33:47;;;;;;;6.88;5.25;;;6.30;99.90;;;;;;5034380;28;20101;-83
2021/04/13 13:36:15;;;;;;;7.70;5.22;;;6.10;99.90;;;;;;5033770;28;20037;-85
2021/04/13 13:38:43;;;;;;;7.55;4.82;;;6.40;99.90;;;;;;5033113;28;20060;-85